Time,TemperatureF,DewpointF,PressureIn,WindDirection,WindDirectionDegrees,WindSpeedMPH,WindSpeedGustMPH,Humidity,HourlyPrecipIn,Conditions,Clouds,dailyrainin,SoftwareType,DateUTC
2013-01-13 00:02:00,30.2,26.2,30.36,SSW,202,0.0,0.0,85,0.00,,---,0.00,VWS V14.01,2013-01-13 08:02:00,
2013-01-13 00:07:00,30.2,26.2,30.36,SSW,202,0.0,0.9,85,0.00,,---,0.00,VWS V14.01,2013-01-13 08:07:00,
2013-01-13 00:12:00,30.0,26.1,30.36,SSW,202,0.0,0.0,85,0.00,,---,0.00,VWS V14.01,2013-01-13 08:12:00,
2013-01-13 00:18:00,30.0,26.1,30.33,SSW,202,0.0,0.0,85,0.00,,---,0.00,VWS V14.01,2013-01-13 08:18:00,
2013-01-13 00:23:00,30.7,26.8,30.33,ESE,112,1.3,2.5,85,0.00,,---,0.00,VWS V14.01,2013-01-13 08:23:00,
2013-01-13 00:28:00,31.5,27.5,30.33,SE,135,3.1,4.9,85,0.00,,---,0.00,VWS V14.01,2013-01-13 08:28:00,
2013-01-13 00:33:00,32.0,28.0,30.33,East,90,4.0,4.7,85,0.00,,---,0.00,VWS V14.01,2013-01-13 08:33:00,
2013-01-13 00:38:00,32.2,27.9,30.33,ESE,112,4.3,6.5,84,0.00,,---,0.00,VWS V14.01,2013-01-13 08:38:00,
2013-01-13 00:44:00,32.5,28.0,30.33,ESE,112,4.3,6.3,83,0.00,,---,0.00,VWS V14.01,2013-01-13 08:44:00,
2013-01-13 00:49:00,32.5,27.7,30.36,ESE,112,4.3,7.6,82,0.00,,---,0.00,VWS V14.01,2013-01-13 08:49:00,
2013-01-13 00:54:00,32.5,27.7,30.36,ESE,112,2.2,4.9,82,0.00,,---,0.00,VWS V14.01,2013-01-13 08:54:00,
2013-01-13 00:59:00,32.5,27.4,30.36,SE,135,1.1,4.9,81,0.00,,---,0.00,VWS V14.01,2013-01-13 08:59:00,
2013-01-13 01:04:00,32.5,27.1,30.36,ESE,112,3.1,4.7,80,0.00,,---,0.00,VWS V14.01,2013-01-13 09:04:00,
2013-01-13 01:10:00,32.5,27.1,30.36,SE,135,2.0,4.7,80,0.00,,---,0.00,VWS V14.01,2013-01-13 09:10:00,
2013-01-13 01:15:00,32.4,26.9,30.36,SSE,158,2.5,2.9,80,0.00,,---,0.00,VWS V14.01,2013-01-13 09:15:00,
2013-01-13 01:20:00,32.4,26.9,30.36,SSE,158,0.0,0.0,80,0.00,,---,0.00,VWS V14.01,2013-01-13 09:20:00,
2013-01-13 01:25:00,32.2,26.4,30.36,SSE,158,1.1,2.2,79,0.00,,---,0.00,VWS V14.01,2013-01-13 09:25:00,
2013-01-13 01:31:00,32.2,26.4,30.36,SSE,158,0.0,0.0,79,0.00,,---,0.00,VWS V14.01,2013-01-13 09:31:00,
2013-01-13 01:36:00,32.2,26.4,30.36,SSE,158,0.0,3.4,79,0.00,,---,0.00,VWS V14.01,2013-01-13 09:36:00,
2013-01-13 01:41:00,32.0,26.2,30.36,SSE,158,0.0,1.6,79,0.00,,---,0.00,VWS V14.01,2013-01-13 09:41:00,
2013-01-13 01:46:00,31.8,26.1,30.36,SSE,158,1.6,2.0,79,0.00,,---,0.00,VWS V14.01,2013-01-13 09:46:00,
2013-01-13 01:51:00,31.8,26.4,30.36,SSE,158,0.0,0.0,80,0.00,,---,0.00,VWS V14.01,2013-01-13 09:51:00,
2013-01-13 01:57:00,31.5,26.0,30.36,South,180,0.0,0.0,80,0.00,,---,0.00,VWS V14.01,2013-01-13 09:57:00,
2013-01-13 02:02:00,31.3,25.8,30.36,South,180,1.6,1.6,80,0.00,,---,0.00,VWS V14.01,2013-01-13 10:02:00,
2013-01-13 02:07:00,31.1,25.7,30.36,SSW,202,0.0,2.5,80,0.00,,---,0.00,VWS V14.01,2013-01-13 10:07:00,
2013-01-13 02:12:00,31.1,25.7,30.36,SSW,202,0.0,1.3,80,0.00,,---,0.00,VWS V14.01,2013-01-13 10:12:00,
2013-01-13 02:17:00,31.1,25.7,30.36,SSW,202,0.0,1.3,80,0.00,,---,0.00,VWS V14.01,2013-01-13 10:17:00,
2013-01-13 02:23:00,31.1,25.7,30.36,SSW,202,0.0,0.0,80,0.00,,---,0.00,VWS V14.01,2013-01-13 10:23:00,
2013-01-13 02:28:00,31.1,26.0,30.36,SSW,202,0.0,1.1,81,0.00,,---,0.00,VWS V14.01,2013-01-13 10:28:00,
2013-01-13 02:33:00,31.1,26.0,30.36,South,180,0.0,0.0,81,0.00,,---,0.00,VWS V14.01,2013-01-13 10:33:00,
2013-01-13 02:38:00,31.1,26.0,30.36,South,180,0.9,0.9,81,0.00,,---,0.00,VWS V14.01,2013-01-13 10:38:00,
2013-01-13 02:44:00,31.1,26.0,30.36,South,180,0.0,1.1,81,0.00,,---,0.00,VWS V14.01,2013-01-13 10:44:00,
2013-01-13 02:49:00,30.9,25.8,30.36,South,180,0.0,2.0,81,0.00,,---,0.00,VWS V14.01,2013-01-13 10:49:00,
2013-01-13 02:54:00,30.7,25.6,30.36,SSW,202,0.0,2.0,81,0.00,,---,0.00,VWS V14.01,2013-01-13 10:54:00,
2013-01-13 02:59:00,30.7,25.9,30.36,SSW,202,0.0,2.0,82,0.00,,---,0.00,VWS V14.01,2013-01-13 10:59:00,
2013-01-13 03:04:00,30.7,25.9,30.36,SSW,202,0.0,0.0,82,0.00,,---,0.00,VWS V14.01,2013-01-13 11:04:00,
2013-01-13 03:10:00,30.6,25.7,30.36,SSW,202,0.0,2.0,82,0.00,,---,0.00,VWS V14.01,2013-01-13 11:10:00,
2013-01-13 03:15:00,30.4,25.5,30.36,SSW,202,0.0,1.3,82,0.00,,---,0.00,VWS V14.01,2013-01-13 11:15:00,
2013-01-13 03:20:00,30.2,25.4,30.36,SSW,202,0.0,2.0,82,0.00,,---,0.00,VWS V14.01,2013-01-13 11:20:00,
2013-01-13 03:25:00,30.2,25.7,30.36,SSW,202,0.0,0.0,83,0.00,,---,0.00,VWS V14.01,2013-01-13 11:25:00,
2013-01-13 03:30:00,30.2,25.7,30.36,SSW,202,0.0,0.0,83,0.00,,---,0.00,VWS V14.01,2013-01-13 11:30:00,
2013-01-13 03:36:00,30.0,25.5,30.36,SSW,202,0.0,2.0,83,0.00,,---,0.00,VWS V14.01,2013-01-13 11:36:00,
2013-01-13 03:41:00,29.8,25.3,30.36,SSW,202,2.5,2.5,83,0.00,,---,0.00,VWS V14.01,2013-01-13 11:41:00,
2013-01-13 03:46:00,29.8,25.3,30.36,SW,225,2.5,2.9,83,0.00,,---,0.00,VWS V14.01,2013-01-13 11:46:00,
2013-01-13 03:51:00,29.8,25.3,30.36,SW,225,0.0,0.0,83,0.00,,---,0.00,VWS V14.01,2013-01-13 11:51:00,
2013-01-13 03:57:00,30.0,25.5,30.36,SW,225,0.0,0.0,83,0.00,,---,0.00,VWS V14.01,2013-01-13 11:57:00,
2013-01-13 04:02:00,30.0,25.8,30.36,SW,225,0.0,0.9,84,0.00,,---,0.00,VWS V14.01,2013-01-13 12:02:00,
2013-01-13 04:07:00,30.2,26.0,30.36,SW,225,0.0,0.9,84,0.00,,---,0.00,VWS V14.01,2013-01-13 12:07:00,
2013-01-13 04:12:00,30.4,25.9,30.36,South,180,1.6,1.6,83,0.00,,---,0.00,VWS V14.01,2013-01-13 12:12:00,
2013-01-13 04:17:00,30.4,25.9,30.36,SSE,158,1.3,2.0,83,0.00,,---,0.00,VWS V14.01,2013-01-13 12:17:00,
2013-01-13 04:23:00,30.4,25.9,30.36,SSE,158,2.0,3.8,83,0.00,,---,0.00,VWS V14.01,2013-01-13 12:23:00,
2013-01-13 04:28:00,30.2,26.0,30.36,SSE,158,2.2,3.8,84,0.00,,---,0.00,VWS V14.01,2013-01-13 12:28:00,
2013-01-13 04:33:00,30.2,26.0,30.36,SSE,158,2.5,2.9,84,0.00,,---,0.00,VWS V14.01,2013-01-13 12:33:00,
2013-01-13 04:38:00,30.2,26.0,30.36,SSE,158,1.3,2.9,84,0.00,,---,0.00,VWS V14.01,2013-01-13 12:38:00,
2013-01-13 04:43:00,30.2,26.0,30.36,SSE,158,2.7,2.7,84,0.00,,---,0.00,VWS V14.01,2013-01-13 12:43:00,
2013-01-13 04:49:00,30.0,25.8,30.36,SSE,158,0.0,2.7,84,0.00,,---,0.00,VWS V14.01,2013-01-13 12:49:00,
2013-01-13 04:54:00,30.0,25.8,30.36,SSE,158,0.0,1.3,84,0.00,,---,0.00,VWS V14.01,2013-01-13 12:54:00,
2013-01-13 04:59:00,29.8,25.6,30.36,SSE,158,0.0,1.3,84,0.00,,---,0.00,VWS V14.01,2013-01-13 12:59:00,
2013-01-13 05:05:00,29.7,25.4,30.36,SSE,158,0.0,0.0,84,0.00,,---,0.00,VWS V14.01,2013-01-13 13:05:00,
2013-01-13 05:10:00,29.1,24.9,30.36,SSE,158,0.0,0.0,84,0.00,,---,0.00,VWS V14.01,2013-01-13 13:10:00,
2013-01-13 05:15:00,29.1,24.9,30.36,SSE,158,0.0,0.0,84,0.00,,---,0.00,VWS V14.01,2013-01-13 13:15:00,
2013-01-13 05:20:00,28.8,24.5,30.36,SSE,158,0.0,0.0,84,0.00,,---,0.00,VWS V14.01,2013-01-13 13:20:00,
2013-01-13 05:25:00,28.8,24.5,30.36,SSE,158,1.3,1.3,84,0.00,,---,0.00,VWS V14.01,2013-01-13 13:25:00,
2013-01-13 05:31:00,28.9,25.0,30.36,SSE,158,0.0,0.0,85,0.00,,---,0.00,VWS V14.01,2013-01-13 13:31:00,
2013-01-13 05:36:00,28.6,24.6,30.36,SSE,158,0.0,0.0,85,0.00,,---,0.00,VWS V14.01,2013-01-13 13:36:00,
2013-01-13 05:41:00,28.6,24.6,30.36,SSE,158,0.0,0.0,85,0.00,,---,0.00,VWS V14.01,2013-01-13 13:41:00,
2013-01-13 05:46:00,28.6,24.6,30.36,SSE,158,0.0,0.0,85,0.00,,---,0.00,VWS V14.01,2013-01-13 13:46:00,
2013-01-13 05:52:00,28.6,24.6,30.36,SSE,158,0.0,0.0,85,0.00,,---,0.00,VWS V14.01,2013-01-13 13:52:00,
2013-01-13 05:57:00,28.6,24.6,30.36,SSE,158,0.0,0.9,85,0.00,,---,0.00,VWS V14.01,2013-01-13 13:57:00,
2013-01-13 06:02:00,28.8,25.1,30.36,SSE,158,0.0,0.0,86,0.00,,---,0.00,VWS V14.01,2013-01-13 14:02:00,
2013-01-13 06:07:00,28.6,24.9,30.36,SSE,158,0.0,0.0,86,0.00,,---,0.00,VWS V14.01,2013-01-13 14:07:00,
2013-01-13 06:12:00,28.4,24.8,30.36,SSE,158,0.0,0.0,86,0.00,,---,0.00,VWS V14.01,2013-01-13 14:12:00,
2013-01-13 06:18:00,28.6,24.9,30.39,SSE,158,1.6,1.6,86,0.00,,---,0.00,VWS V14.01,2013-01-13 14:18:00,
2013-01-13 06:23:00,28.6,24.9,30.39,SSE,158,0.0,0.0,86,0.00,,---,0.00,VWS V14.01,2013-01-13 14:23:00,
2013-01-13 06:28:00,28.8,25.1,30.39,SSE,158,0.0,0.0,86,0.00,,---,0.00,VWS V14.01,2013-01-13 14:28:00,
2013-01-13 06:33:00,29.1,25.5,30.39,SSE,158,2.7,3.8,86,0.00,,---,0.00,VWS V14.01,2013-01-13 14:33:00,
2013-01-13 06:39:00,29.1,25.5,30.39,SSE,158,2.5,3.8,86,0.00,,---,0.00,VWS V14.01,2013-01-13 14:39:00,
2013-01-13 06:44:00,29.1,25.5,30.39,SSE,158,0.0,2.2,86,0.00,,---,0.00,VWS V14.01,2013-01-13 14:44:00,
2013-01-13 06:49:00,29.3,25.6,30.39,SSE,158,2.0,2.2,86,0.00,,---,0.00,VWS V14.01,2013-01-13 14:49:00,
2013-01-13 06:54:00,29.3,25.6,30.39,SSE,158,0.9,2.9,86,0.00,,---,0.00,VWS V14.01,2013-01-13 14:54:00,
2013-01-13 07:00:00,29.3,25.6,30.39,SSE,158,0.9,2.9,86,0.00,,---,0.00,VWS V14.01,2013-01-13 15:00:00,
2013-01-13 07:05:00,29.3,25.6,30.39,SSE,158,0.0,2.2,86,0.00,,---,0.00,VWS V14.01,2013-01-13 15:05:00,
2013-01-13 07:10:00,29.3,25.6,30.39,SSE,158,0.0,2.2,86,0.00,,---,0.00,VWS V14.01,2013-01-13 15:10:00,
2013-01-13 07:15:00,29.3,25.6,30.39,SSE,158,0.0,1.6,86,0.00,,---,0.00,VWS V14.01,2013-01-13 15:15:00,
2013-01-13 07:20:00,29.3,25.6,30.39,SSE,158,2.0,2.0,86,0.00,,---,0.00,VWS V14.01,2013-01-13 15:20:00,
2013-01-13 07:26:00,29.3,25.6,30.39,SSE,158,0.0,2.5,86,0.00,,---,0.00,VWS V14.01,2013-01-13 15:26:00,
2013-01-13 07:31:00,29.3,25.6,30.39,SSE,158,1.6,2.0,86,0.00,,---,0.00,VWS V14.01,2013-01-13 15:31:00,
2013-01-13 07:36:00,29.3,25.6,30.39,SSE,158,1.3,2.7,86,0.00,,---,0.00,VWS V14.01,2013-01-13 15:36:00,
2013-01-13 07:41:00,29.3,25.6,30.39,SSE,158,0.9,0.9,86,0.00,,---,0.00,VWS V14.01,2013-01-13 15:41:00,
2013-01-13 07:47:00,29.3,25.6,30.39,SSE,158,2.0,2.0,86,0.00,,---,0.00,VWS V14.01,2013-01-13 15:47:00,
2013-01-13 07:52:00,29.1,25.5,30.39,SSE,158,2.2,3.4,86,0.00,,---,0.00,VWS V14.01,2013-01-13 15:52:00,
2013-01-13 07:57:00,29.1,25.5,30.39,SSE,158,2.2,3.4,86,0.00,,---,0.00,VWS V14.01,2013-01-13 15:57:00,
2013-01-13 08:02:00,29.1,25.5,30.39,SSE,158,0.0,2.0,86,0.00,,---,0.00,VWS V14.01,2013-01-13 16:02:00,
2013-01-13 08:08:00,29.3,25.6,30.39,SSE,158,0.0,2.9,86,0.00,,---,0.00,VWS V14.01,2013-01-13 16:08:00,
2013-01-13 08:13:00,29.3,25.6,30.39,SSE,158,0.0,1.3,86,0.00,,---,0.00,VWS V14.01,2013-01-13 16:13:00,
2013-01-13 08:18:00,29.3,25.6,30.39,SSE,158,2.0,2.9,86,0.00,,---,0.00,VWS V14.01,2013-01-13 16:18:00,
2013-01-13 08:23:00,29.3,25.6,30.39,SSE,158,0.0,0.0,86,0.00,,---,0.00,VWS V14.01,2013-01-13 16:23:00,
2013-01-13 08:28:00,29.3,25.6,30.39,SSE,158,0.9,2.5,86,0.00,,---,0.00,VWS V14.01,2013-01-13 16:28:00,
2013-01-13 08:34:00,29.5,25.8,30.41,SSE,158,0.0,1.3,86,0.00,,---,0.00,VWS V14.01,2013-01-13 16:34:00,
2013-01-13 08:39:00,29.7,26.0,30.41,SSE,158,0.0,1.3,86,0.00,,---,0.00,VWS V14.01,2013-01-13 16:39:00,
2013-01-13 08:44:00,29.8,26.2,30.41,SSE,158,0.0,1.3,86,0.00,,---,0.00,VWS V14.01,2013-01-13 16:44:00,
2013-01-13 08:49:00,30.0,26.4,30.41,SSE,158,0.0,1.3,86,0.00,,---,0.00,VWS V14.01,2013-01-13 16:49:00,
2013-01-13 08:54:00,30.2,26.5,30.41,SSE,158,0.0,0.0,86,0.00,,---,0.00,VWS V14.01,2013-01-13 16:54:00,
2013-01-13 09:00:00,30.2,26.5,30.41,SSE,158,0.0,0.0,86,0.00,,---,0.00,VWS V14.01,2013-01-13 17:00:00,
2013-01-13 09:05:00,30.2,26.5,30.41,SSE,158,0.0,1.6,86,0.00,,---,0.00,VWS V14.01,2013-01-13 17:05:00,
2013-01-13 09:10:00,30.6,26.9,30.41,SSE,158,0.0,0.0,86,0.00,,---,0.00,VWS V14.01,2013-01-13 17:10:00,
2013-01-13 09:15:00,30.9,27.2,30.41,ESE,112,2.5,2.7,86,0.00,,---,0.00,VWS V14.01,2013-01-13 17:15:00,
2013-01-13 09:21:00,31.1,27.1,30.41,ESE,112,0.0,0.0,85,0.00,,---,0.00,VWS V14.01,2013-01-13 17:21:00,
2013-01-13 09:26:00,31.6,27.7,30.41,ESE,112,0.0,2.0,85,0.00,,---,0.00,VWS V14.01,2013-01-13 17:26:00,
2013-01-13 09:31:00,32.2,28.2,30.41,ESE,112,0.0,2.7,85,0.00,,---,0.00,VWS V14.01,2013-01-13 17:31:00,
2013-01-13 09:36:00,32.5,28.5,30.41,ESE,112,2.7,3.4,85,0.00,,---,0.00,VWS V14.01,2013-01-13 17:36:00,
2013-01-13 09:41:00,33.1,29.1,30.41,ESE,112,3.6,4.9,85,0.00,,---,0.00,VWS V14.01,2013-01-13 17:41:00,
2013-01-13 09:47:00,33.3,29.0,30.41,ESE,112,3.1,5.8,84,0.00,,---,0.00,VWS V14.01,2013-01-13 17:47:00,
2013-01-13 09:52:00,33.8,29.5,30.41,East,90,3.6,3.6,84,0.00,,---,0.00,VWS V14.01,2013-01-13 17:52:00,
2013-01-13 09:57:00,33.6,28.7,30.41,East,90,0.0,3.6,82,0.00,,---,0.00,VWS V14.01,2013-01-13 17:57:00,
2013-01-13 10:02:00,33.8,28.0,30.41,NNW,338,0.0,1.6,79,0.00,,---,0.00,VWS V14.01,2013-01-13 18:02:00,
2013-01-13 10:07:00,34.0,27.9,30.41,NE,45,2.9,2.9,78,0.00,,---,0.00,VWS V14.01,2013-01-13 18:07:00,
2013-01-13 10:13:00,34.5,29.0,30.41,ESE,112,2.5,3.6,80,0.00,,---,0.00,VWS V14.01,2013-01-13 18:13:00,
2013-01-13 10:18:00,34.7,28.9,30.41,ESE,112,4.3,4.3,79,0.00,,---,0.00,VWS V14.01,2013-01-13 18:18:00,
2013-01-13 10:23:00,35.1,29.2,30.41,ESE,112,2.0,4.3,79,0.00,,---,0.00,VWS V14.01,2013-01-13 18:23:00,
2013-01-13 10:28:00,35.2,28.8,30.41,ESE,112,3.1,4.3,77,0.00,,---,0.00,VWS V14.01,2013-01-13 18:28:00,
2013-01-13 10:34:00,35.4,28.6,30.41,ESE,112,4.0,4.9,76,0.00,,---,0.00,VWS V14.01,2013-01-13 18:34:00,
2013-01-13 10:39:00,35.4,28.6,30.41,ENE,68,0.9,4.9,76,0.00,,---,0.00,VWS V14.01,2013-01-13 18:39:00,
2013-01-13 10:44:00,35.4,28.3,30.41,ESE,112,3.8,3.8,75,0.00,,---,0.00,VWS V14.01,2013-01-13 18:44:00,
2013-01-13 10:49:00,35.2,27.8,30.41,East,90,0.0,3.8,74,0.00,,---,0.00,VWS V14.01,2013-01-13 18:49:00,
2013-01-13 10:55:00,35.6,28.1,30.41,East,90,3.4,5.4,74,0.00,,---,0.00,VWS V14.01,2013-01-13 18:55:00,
2013-01-13 11:00:00,35.8,28.3,30.41,ESE,112,3.4,3.4,74,0.00,,---,0.00,VWS V14.01,2013-01-13 19:00:00,
2013-01-13 11:05:00,36.0,28.5,30.41,SE,135,3.6,3.8,74,0.00,,---,0.00,VWS V14.01,2013-01-13 19:05:00,
2013-01-13 11:10:00,36.1,28.3,30.41,East,90,2.7,3.8,73,0.00,,---,0.00,VWS V14.01,2013-01-13 19:10:00,
2013-01-13 11:15:00,36.3,28.5,30.41,ESE,112,5.6,5.6,73,0.00,,---,0.00,VWS V14.01,2013-01-13 19:15:00,
2013-01-13 11:21:00,36.5,28.7,30.41,ESE,112,3.1,3.1,73,0.00,,---,0.00,VWS V14.01,2013-01-13 19:21:00,
2013-01-13 11:26:00,36.7,28.5,30.41,East,90,2.5,4.3,72,0.00,,---,0.00,VWS V14.01,2013-01-13 19:26:00,
2013-01-13 11:31:00,36.7,28.5,30.41,NNE,22,0.0,2.5,72,0.00,,---,0.00,VWS V14.01,2013-01-13 19:31:00,
2013-01-13 11:36:00,36.9,28.4,30.41,ESE,112,0.0,5.8,71,0.00,,---,0.00,VWS V14.01,2013-01-13 19:36:00,
2013-01-13 11:41:00,37.4,29.2,30.41,ESE,112,2.7,2.7,72,0.00,,---,0.00,VWS V14.01,2013-01-13 19:41:00,
2013-01-13 11:47:00,37.0,28.2,30.41,ESE,112,1.3,2.7,70,0.00,,---,0.00,VWS V14.01,2013-01-13 19:47:00,
2013-01-13 11:52:00,37.4,28.5,30.41,ESE,112,3.8,3.8,70,0.00,,---,0.00,VWS V14.01,2013-01-13 19:52:00,
2013-01-13 11:57:00,37.6,29.0,30.41,NNE,22,2.5,5.6,71,0.00,,---,0.00,VWS V14.01,2013-01-13 19:57:00,
2013-01-13 12:02:00,37.9,29.4,30.41,East,90,2.5,4.0,71,0.00,,---,0.00,VWS V14.01,2013-01-13 20:02:00,
2013-01-13 12:08:00,37.9,29.0,30.41,ESE,112,1.3,4.0,70,0.00,,---,0.00,VWS V14.01,2013-01-13 20:08:00,
2013-01-13 12:13:00,37.9,29.0,30.41,East,90,3.1,3.4,70,0.00,,---,0.00,VWS V14.01,2013-01-13 20:13:00,
2013-01-13 12:18:00,38.1,28.9,30.41,NNE,22,1.6,3.4,69,0.00,,---,0.00,VWS V14.01,2013-01-13 20:18:00,
2013-01-13 12:23:00,37.9,28.3,30.41,WNW,292,2.9,5.4,68,0.00,,---,0.00,VWS V14.01,2013-01-13 20:23:00,
2013-01-13 12:28:00,37.8,27.8,30.41,SE,135,2.7,5.4,67,0.00,,---,0.00,VWS V14.01,2013-01-13 20:28:00,
2013-01-13 12:34:00,37.9,28.0,30.39,East,90,0.9,2.9,67,0.00,,---,0.00,VWS V14.01,2013-01-13 20:34:00,
2013-01-13 12:39:00,37.9,28.0,30.39,East,90,2.9,4.3,67,0.00,,---,0.00,VWS V14.01,2013-01-13 20:39:00,
2013-01-13 12:44:00,37.9,27.6,30.39,NNE,22,1.6,3.4,66,0.00,,---,0.00,VWS V14.01,2013-01-13 20:44:00,
2013-01-13 12:49:00,38.3,28.0,30.39,ESE,112,3.1,6.0,66,0.00,,---,0.00,VWS V14.01,2013-01-13 20:49:00,
2013-01-13 12:55:00,38.5,28.1,30.39,ESE,112,3.1,3.4,66,0.00,,---,0.00,VWS V14.01,2013-01-13 20:55:00,
2013-01-13 13:00:00,38.5,28.1,30.39,ESE,112,4.3,4.7,66,0.00,,---,0.00,VWS V14.01,2013-01-13 21:00:00,
2013-01-13 13:05:00,38.8,28.1,30.39,East,90,1.1,4.3,65,0.00,,---,0.00,VWS V14.01,2013-01-13 21:05:00,
2013-01-13 13:10:00,39.0,27.9,30.39,ESE,112,1.1,1.1,64,0.00,,---,0.00,VWS V14.01,2013-01-13 21:10:00,
2013-01-13 13:16:00,39.2,28.1,30.39,East,90,4.9,7.2,64,0.00,,---,0.00,VWS V14.01,2013-01-13 21:16:00,
2013-01-13 13:21:00,39.2,27.3,30.39,ESE,112,3.1,3.6,62,0.00,,---,0.00,VWS V14.01,2013-01-13 21:21:00,
2013-01-13 13:26:00,39.2,26.9,30.39,NNE,22,2.0,6.0,61,0.00,,---,0.00,VWS V14.01,2013-01-13 21:26:00,
2013-01-13 13:31:00,40.1,28.1,30.39,ESE,112,4.0,4.0,62,0.00,,---,0.00,VWS V14.01,2013-01-13 21:31:00,
2013-01-13 13:36:00,41.4,29.3,30.39,SE,135,3.6,6.3,62,0.00,,---,0.00,VWS V14.01,2013-01-13 21:36:00,
2013-01-13 13:42:00,42.6,29.3,30.39,ENE,68,2.9,2.9,59,0.00,,---,0.00,VWS V14.01,2013-01-13 21:42:00,
2013-01-13 13:47:00,44.1,31.5,30.39,NNW,338,1.6,3.1,61,0.00,,---,0.00,VWS V14.01,2013-01-13 21:47:00,
2013-01-13 13:52:00,45.1,30.8,30.39,NNW,338,0.0,4.0,57,0.00,,---,0.00,VWS V14.01,2013-01-13 21:52:00,
2013-01-13 13:58:00,45.9,30.2,30.39,ESE,112,5.4,5.4,54,0.00,,---,0.00,VWS V14.01,2013-01-13 21:58:00,
2013-01-13 14:03:00,46.4,30.2,30.39,NE,45,0.0,2.0,53,0.00,,---,0.00,VWS V14.01,2013-01-13 22:03:00,
2013-01-13 14:08:00,46.4,29.3,30.39,WNW,292,4.3,4.3,51,0.00,,---,0.00,VWS V14.01,2013-01-13 22:08:00,
2013-01-13 14:13:00,45.0,27.0,30.39,NNW,338,4.3,4.3,49,0.00,,---,0.00,VWS V14.01,2013-01-13 22:13:00,
2013-01-13 14:18:00,44.1,26.6,30.39,NNW,338,2.0,4.3,50,0.00,,---,0.00,VWS V14.01,2013-01-13 22:18:00,
2013-01-13 14:24:00,43.3,26.0,30.39,WNW,292,3.4,3.4,50,0.00,,---,0.00,VWS V14.01,2013-01-13 22:24:00,
2013-01-13 14:29:00,43.2,26.3,30.39,NNE,22,2.2,3.6,51,0.00,,---,0.00,VWS V14.01,2013-01-13 22:29:00,
2013-01-13 14:34:00,44.1,28.0,30.39,NNW,338,2.0,2.2,53,0.00,,---,0.00,VWS V14.01,2013-01-13 22:34:00,
2013-01-13 14:39:00,45.3,28.3,30.39,WNW,292,3.1,3.1,51,0.00,,---,0.00,VWS V14.01,2013-01-13 22:39:00,
2013-01-13 14:45:00,45.9,27.3,30.39,NW,315,4.0,4.0,48,0.00,,---,0.00,VWS V14.01,2013-01-13 22:45:00,
2013-01-13 14:50:00,45.0,26.0,30.39,WNW,292,3.4,4.0,47,0.00,,---,0.00,VWS V14.01,2013-01-13 22:50:00,
2013-01-13 14:55:00,43.5,25.1,30.39,NW,315,3.6,3.6,48,0.00,,---,0.00,VWS V14.01,2013-01-13 22:55:00,
2013-01-13 15:00:00,42.4,24.6,30.39,WNW,292,2.5,2.5,49,0.00,,---,0.00,VWS V14.01,2013-01-13 23:00:00,
2013-01-13 15:05:00,42.3,25.4,30.39,WNW,292,2.7,3.4,51,0.00,,---,0.00,VWS V14.01,2013-01-13 23:05:00,
2013-01-13 15:11:00,41.4,25.5,30.39,NW,315,6.0,6.0,53,0.00,,---,0.00,VWS V14.01,2013-01-13 23:11:00,
2013-01-13 15:16:00,41.2,25.8,30.39,NW,315,3.6,6.0,54,0.00,,---,0.00,VWS V14.01,2013-01-13 23:16:00,
2013-01-13 15:21:00,40.8,26.4,30.39,NNW,338,2.5,2.5,56,0.00,,---,0.00,VWS V14.01,2013-01-13 23:21:00,
2013-01-13 15:26:00,40.6,26.6,30.39,NNW,338,2.7,6.0,57,0.00,,---,0.00,VWS V14.01,2013-01-13 23:26:00,
2013-01-13 15:32:00,40.5,26.4,30.39,WNW,292,2.7,4.0,57,0.00,,---,0.00,VWS V14.01,2013-01-13 23:32:00,
2013-01-13 15:37:00,40.5,26.9,30.39,NNW,338,4.5,4.5,58,0.00,,---,0.00,VWS V14.01,2013-01-13 23:37:00,
2013-01-13 15:42:00,40.5,26.9,30.39,NNW,338,2.5,3.8,58,0.00,,---,0.00,VWS V14.01,2013-01-13 23:42:00,
2013-01-13 15:47:00,40.5,26.9,30.39,NNW,338,2.5,3.8,58,0.00,,---,0.00,VWS V14.01,2013-01-13 23:47:00,
2013-01-13 15:53:00,40.3,26.7,30.39,NNW,338,1.3,3.6,58,0.00,,---,0.00,VWS V14.01,2013-01-13 23:53:00,
2013-01-13 15:58:00,40.3,27.1,30.39,NNW,338,2.9,3.6,59,0.00,,---,0.00,VWS V14.01,2013-01-13 23:58:00,
2013-01-13 16:03:00,40.1,26.9,30.39,NNW,338,2.2,2.9,59,0.00,,---,0.00,VWS V14.01,2013-01-14 00:03:00,
2013-01-13 16:08:00,39.7,27.0,30.39,NNW,338,1.3,6.0,60,0.00,,---,0.00,VWS V14.01,2013-01-14 00:08:00,
2013-01-13 16:13:00,39.7,27.0,30.39,WNW,292,3.6,3.6,60,0.00,,---,0.00,VWS V14.01,2013-01-14 00:13:00,
2013-01-13 16:19:00,39.4,26.7,30.39,NW,315,2.2,7.6,60,0.00,,---,0.00,VWS V14.01,2013-01-14 00:19:00,
2013-01-13 16:24:00,39.2,26.9,30.39,NNW,338,2.9,3.4,61,0.00,,---,0.00,VWS V14.01,2013-01-14 00:24:00,
2013-01-13 16:29:00,39.2,26.9,30.39,NNW,338,1.3,3.4,61,0.00,,---,0.00,VWS V14.01,2013-01-14 00:29:00,
2013-01-13 16:34:00,39.0,26.7,30.39,NNW,338,0.0,3.6,61,0.00,,---,0.00,VWS V14.01,2013-01-14 00:34:00,
2013-01-13 16:40:00,38.8,27.0,30.39,NNW,338,4.0,4.0,62,0.00,,---,0.00,VWS V14.01,2013-01-14 00:40:00,
2013-01-13 16:45:00,38.7,26.8,30.39,NNW,338,2.5,5.6,62,0.00,,---,0.00,VWS V14.01,2013-01-14 00:45:00,
2013-01-13 16:50:00,38.5,26.6,30.39,NNW,338,1.1,1.1,62,0.00,,---,0.00,VWS V14.01,2013-01-14 00:50:00,
2013-01-13 16:55:00,38.1,26.6,30.39,NNE,22,1.3,2.0,63,0.00,,---,0.00,VWS V14.01,2013-01-14 00:55:00,
2013-01-13 17:00:00,37.9,26.5,30.39,NNW,338,1.6,1.6,63,0.00,,---,0.00,VWS V14.01,2013-01-14 01:00:00,
2013-01-13 17:06:00,37.8,26.3,30.39,NNW,338,1.6,1.6,63,0.00,,---,0.00,VWS V14.01,2013-01-14 01:06:00,
2013-01-13 17:11:00,37.4,26.4,30.39,ENE,68,0.0,0.0,64,0.00,,---,0.00,VWS V14.01,2013-01-14 01:11:00,
2013-01-13 17:16:00,36.9,26.2,30.39,ENE,68,1.1,1.1,65,0.00,,---,0.00,VWS V14.01,2013-01-14 01:16:00,
2013-01-13 17:21:00,36.7,26.0,30.39,East,90,0.0,2.7,65,0.00,,---,0.00,VWS V14.01,2013-01-14 01:21:00,
2013-01-13 17:26:00,36.1,25.5,30.39,East,90,0.0,2.7,65,0.00,,---,0.00,VWS V14.01,2013-01-14 01:26:00,
2013-01-13 17:32:00,36.0,25.4,30.41,East,90,0.0,0.0,65,0.00,,---,0.00,VWS V14.01,2013-01-14 01:32:00,
2013-01-13 17:37:00,35.6,25.0,30.41,East,90,0.0,0.0,65,0.00,,---,0.00,VWS V14.01,2013-01-14 01:37:00,
2013-01-13 17:42:00,35.4,25.2,30.41,East,90,0.0,0.0,66,0.00,,---,0.00,VWS V14.01,2013-01-14 01:42:00,
2013-01-13 17:47:00,35.2,25.0,30.41,East,90,1.1,1.6,66,0.00,,---,0.00,VWS V14.01,2013-01-14 01:47:00,
2013-01-13 17:53:00,35.1,24.9,30.41,East,90,1.6,1.6,66,0.00,,---,0.00,VWS V14.01,2013-01-14 01:53:00,
2013-01-13 17:58:00,35.1,25.2,30.41,ESE,112,0.0,1.6,67,0.00,,---,0.00,VWS V14.01,2013-01-14 01:58:00,
2013-01-13 18:03:00,34.9,25.0,30.41,ESE,112,0.0,0.0,67,0.00,,---,0.00,VWS V14.01,2013-01-14 02:03:00,
2013-01-13 18:08:00,34.9,25.0,30.41,East,90,1.6,1.6,67,0.00,,---,0.00,VWS V14.01,2013-01-14 02:08:00,
2013-01-13 18:13:00,34.9,25.0,30.41,ESE,112,1.3,1.3,67,0.00,,---,0.00,VWS V14.01,2013-01-14 02:13:00,
2013-01-13 18:19:00,34.9,25.0,30.41,ESE,112,2.0,2.0,67,0.00,,---,0.00,VWS V14.01,2013-01-14 02:19:00,
2013-01-13 18:24:00,34.7,24.9,30.41,ESE,112,1.6,1.6,67,0.00,,---,0.00,VWS V14.01,2013-01-14 02:24:00,
2013-01-13 18:29:00,34.5,25.1,30.41,ESE,112,0.0,3.6,68,0.00,,---,0.00,VWS V14.01,2013-01-14 02:29:00,
2013-01-13 18:34:00,34.3,24.9,30.41,NNE,22,0.0,1.1,68,0.00,,---,0.00,VWS V14.01,2013-01-14 02:34:00,
2013-01-13 18:39:00,34.2,24.7,30.41,NNE,22,0.0,1.1,68,0.00,,---,0.00,VWS V14.01,2013-01-14 02:39:00,
2013-01-13 18:45:00,33.8,24.4,30.41,NE,45,0.0,0.0,68,0.00,,---,0.00,VWS V14.01,2013-01-14 02:45:00,
2013-01-13 18:50:00,33.6,24.5,30.41,NE,45,0.0,0.0,69,0.00,,---,0.00,VWS V14.01,2013-01-14 02:50:00,
2013-01-13 18:55:00,33.4,24.7,30.41,NE,45,0.0,0.0,70,0.00,,---,0.00,VWS V14.01,2013-01-14 02:55:00,
2013-01-13 19:00:00,33.3,24.5,30.44,ESE,112,2.5,2.5,70,0.00,,---,0.00,VWS V14.01,2013-01-14 03:00:00,
2013-01-13 19:06:00,33.1,24.4,30.44,ESE,112,2.2,2.7,70,0.00,,---,0.00,VWS V14.01,2013-01-14 03:06:00,
2013-01-13 19:11:00,32.7,24.4,30.44,East,90,2.5,2.5,71,0.00,,---,0.00,VWS V14.01,2013-01-14 03:11:00,
2013-01-13 19:16:00,32.9,24.9,30.41,East,90,2.7,2.7,72,0.00,,---,0.00,VWS V14.01,2013-01-14 03:16:00,
2013-01-13 19:21:00,32.7,24.7,30.41,East,90,2.9,2.9,72,0.00,,---,0.00,VWS V14.01,2013-01-14 03:21:00,
2013-01-13 19:26:00,32.7,24.7,30.41,East,90,3.1,5.4,72,0.00,,---,0.00,VWS V14.01,2013-01-14 03:26:00,
2013-01-13 19:32:00,32.7,24.7,30.41,ESE,112,3.4,3.4,72,0.00,,---,0.00,VWS V14.01,2013-01-14 03:32:00,
2013-01-13 19:37:00,32.7,24.7,30.41,ESE,112,2.7,3.4,72,0.00,,---,0.00,VWS V14.01,2013-01-14 03:37:00,
2013-01-13 19:42:00,32.5,24.5,30.41,East,90,2.0,2.9,72,0.00,,---,0.00,VWS V14.01,2013-01-14 03:42:00,
2013-01-13 19:47:00,32.5,24.5,30.41,East,90,0.0,2.9,72,0.00,,---,0.00,VWS V14.01,2013-01-14 03:47:00,
2013-01-13 19:52:00,32.5,24.5,30.41,ESE,112,2.5,2.5,72,0.00,,---,0.00,VWS V14.01,2013-01-14 03:52:00,
2013-01-13 19:58:00,32.5,24.5,30.41,East,90,1.1,2.5,72,0.00,,---,0.00,VWS V14.01,2013-01-14 03:58:00,
2013-01-13 20:03:00,32.5,24.5,30.44,East,90,1.6,1.6,72,0.00,,---,0.00,VWS V14.01,2013-01-14 04:03:00,
2013-01-13 20:08:00,32.5,24.5,30.44,ESE,112,0.9,2.7,72,0.00,,---,0.00,VWS V14.01,2013-01-14 04:08:00,
2013-01-13 20:13:00,32.5,24.5,30.44,ESE,112,1.1,2.2,72,0.00,,---,0.00,VWS V14.01,2013-01-14 04:13:00,
2013-01-13 20:19:00,32.4,24.4,30.44,ESE,112,0.0,2.2,72,0.00,,---,0.00,VWS V14.01,2013-01-14 04:19:00,
2013-01-13 20:24:00,32.2,24.2,30.44,ESE,112,2.0,2.0,72,0.00,,---,0.00,VWS V14.01,2013-01-14 04:24:00,
2013-01-13 20:29:00,32.2,24.2,30.44,ESE,112,0.0,2.0,72,0.00,,---,0.00,VWS V14.01,2013-01-14 04:29:00,
2013-01-13 20:34:00,32.2,24.2,30.44,ESE,112,1.1,1.6,72,0.00,,---,0.00,VWS V14.01,2013-01-14 04:34:00,
2013-01-13 20:39:00,32.0,24.3,30.44,ESE,112,0.0,2.0,73,0.00,,---,0.00,VWS V14.01,2013-01-14 04:39:00,
2013-01-13 20:45:00,31.8,24.2,30.44,ESE,112,0.0,1.6,73,0.00,,---,0.00,VWS V14.01,2013-01-14 04:45:00,
2013-01-13 20:50:00,31.8,24.2,30.44,ESE,112,0.0,3.8,73,0.00,,---,0.00,VWS V14.01,2013-01-14 04:50:00,
2013-01-13 20:55:00,32.0,24.3,30.44,ESE,112,0.0,2.7,73,0.00,,---,0.00,VWS V14.01,2013-01-14 04:55:00,
2013-01-13 21:01:00,32.0,24.3,30.44,NNE,22,0.0,0.0,73,0.00,,---,0.00,VWS V14.01,2013-01-14 05:01:00,
2013-01-13 21:02:00,32.0,24.3,30.44,NNE,22,0.0,0.0,73,0.00,,---,0.00,VWS V14.01,2013-01-14 05:02:00,
2013-01-13 21:03:00,32.2,24.5,30.44,NNE,22,0.0,0.0,73,0.00,,---,0.00,VWS V14.01,2013-01-14 05:03:00,
2013-01-13 21:08:00,32.0,24.3,30.44,NE,45,0.0,0.0,73,0.00,,---,0.00,VWS V14.01,2013-01-14 05:08:00,
2013-01-13 21:11:00,32.0,24.3,30.44,NE,45,0.0,0.0,73,0.00,,---,0.00,VWS V14.01,2013-01-14 05:11:00,
2013-01-13 21:17:00,32.0,24.3,30.41,East,90,2.5,2.5,73,0.00,,---,0.00,VWS V14.01,2013-01-14 05:17:00,
2013-01-13 21:22:00,31.8,24.2,30.41,East,90,0.0,0.0,73,0.00,,---,0.00,VWS V14.01,2013-01-14 05:22:00,
2013-01-13 21:27:00,31.8,24.2,30.41,East,90,0.0,0.0,73,0.00,,---,0.00,VWS V14.01,2013-01-14 05:27:00,
2013-01-13 21:32:00,31.6,24.0,30.41,East,90,0.0,0.0,73,0.00,,---,0.00,VWS V14.01,2013-01-14 05:32:00,
2013-01-13 21:38:00,31.6,24.0,30.41,ESE,112,1.1,1.1,73,0.00,,---,0.00,VWS V14.01,2013-01-14 05:38:00,
2013-01-13 21:43:00,31.5,23.8,30.41,SE,135,0.0,0.0,73,0.00,,---,0.00,VWS V14.01,2013-01-14 05:43:00,
2013-01-13 21:48:00,31.3,23.6,30.41,SE,135,0.0,0.0,73,0.00,,---,0.00,VWS V14.01,2013-01-14 05:48:00,
2013-01-13 21:53:00,31.3,23.6,30.41,SE,135,0.0,0.0,73,0.00,,---,0.00,VWS V14.01,2013-01-14 05:53:00,
2013-01-13 21:59:00,31.1,23.5,30.41,South,180,2.0,2.0,73,0.00,,---,0.00,VWS V14.01,2013-01-14 05:59:00,
2013-01-13 22:04:00,30.9,23.6,30.41,SSW,202,0.0,2.2,74,0.00,,---,0.00,VWS V14.01,2013-01-14 06:04:00,
2013-01-13 22:09:00,30.7,23.5,30.41,SSW,202,0.0,2.2,74,0.00,,---,0.00,VWS V14.01,2013-01-14 06:09:00,
2013-01-13 22:14:00,31.1,23.8,30.41,SSE,158,2.0,2.2,74,0.00,,---,0.00,VWS V14.01,2013-01-14 06:14:00,
2013-01-13 22:20:00,31.1,23.8,30.41,ESE,112,2.0,3.1,74,0.00,,---,0.00,VWS V14.01,2013-01-14 06:20:00,
2013-01-13 22:25:00,31.1,23.8,30.41,ESE,112,1.6,4.0,74,0.00,,---,0.00,VWS V14.01,2013-01-14 06:25:00,
2013-01-13 22:30:00,30.9,23.6,30.41,ESE,112,0.0,0.0,74,0.00,,---,0.00,VWS V14.01,2013-01-14 06:30:00,
2013-01-13 22:35:00,30.7,23.5,30.41,ESE,112,0.0,0.0,74,0.00,,---,0.00,VWS V14.01,2013-01-14 06:35:00,
2013-01-13 22:41:00,30.7,23.5,30.41,ESE,112,0.0,0.0,74,0.00,,---,0.00,VWS V14.01,2013-01-14 06:41:00,
2013-01-13 22:46:00,30.4,23.4,30.44,ESE,112,0.0,0.0,75,0.00,,---,0.00,VWS V14.01,2013-01-14 06:46:00,
2013-01-13 22:51:00,30.2,23.2,30.44,ESE,112,0.0,0.0,75,0.00,,---,0.00,VWS V14.01,2013-01-14 06:51:00,
2013-01-13 22:57:00,30.0,23.1,30.44,ESE,112,0.0,2.7,75,0.00,,---,0.00,VWS V14.01,2013-01-14 06:57:00,
2013-01-13 23:02:00,30.0,23.4,30.44,ESE,112,0.0,0.0,76,0.00,,---,0.00,VWS V14.01,2013-01-14 07:02:00,
2013-01-13 23:07:00,30.0,23.4,30.44,ESE,112,0.0,1.3,76,0.00,,---,0.00,VWS V14.01,2013-01-14 07:07:00,
2013-01-13 23:12:00,29.8,23.2,30.44,ESE,112,0.0,0.0,76,0.00,,---,0.00,VWS V14.01,2013-01-14 07:12:00,
2013-01-13 23:18:00,29.7,23.4,30.44,ESE,112,0.0,0.0,77,0.00,,---,0.00,VWS V14.01,2013-01-14 07:18:00,
2013-01-13 23:23:00,29.5,23.2,30.44,ESE,112,0.0,0.0,77,0.00,,---,0.00,VWS V14.01,2013-01-14 07:23:00,
2013-01-13 23:28:00,29.3,23.0,30.44,ESE,112,0.0,0.0,77,0.00,,---,0.00,VWS V14.01,2013-01-14 07:28:00,
2013-01-13 23:33:00,29.5,23.2,30.41,ESE,112,0.0,0.0,77,0.00,,---,0.00,VWS V14.01,2013-01-14 07:33:00,
2013-01-13 23:39:00,29.3,23.0,30.41,ESE,112,0.0,0.0,77,0.00,,---,0.00,VWS V14.01,2013-01-14 07:39:00,
2013-01-13 23:44:00,28.9,22.6,30.41,ESE,112,0.0,0.0,77,0.00,,---,0.00,VWS V14.01,2013-01-14 07:44:00,
2013-01-13 23:49:00,29.1,23.1,30.41,ESE,112,0.0,0.0,78,0.00,,---,0.00,VWS V14.01,2013-01-14 07:49:00,
2013-01-13 23:55:00,28.9,23.0,30.41,ESE,112,0.0,0.0,78,0.00,,---,0.00,VWS V14.01,2013-01-14 07:55:00,